Time;durP1;ratioP1;P1;durP2;ratioP2;P2;SDS_P1;SDS_P2;PMS_P1;PMS_P2;Temp;Humidity;BMP_temperature;BMP_pressure;BME280_temperature;BME280_humidity;BME280_pressure;Samples;Min_cycle;Max_cycle;Signal;HPM_P1;HPM_P2
2023/07/15 00:01:18;;;;;;;3.67;2.70;;;;;22.60;98004.00;;;;5027393;28;20046;-67
2023/07/15 00:03:46;;;;;;;5.50;3.08;;;;;22.50;98007.00;;;;5012744;28;20465;-67
2023/07/15 00:06:13;;;;;;;4.43;3.45;;;;;22.40;98009.00;;;;5014198;28;20461;-67
2023/07/15 00:08:40;;;;;;;3.58;2.55;;;;;22.40;98001.00;;;;5027614;28;20042;-67
2023/07/15 00:11:15;;;;;;;3.00;2.40;;;;;22.30;98003.00;;;;5011219;28;20380;-67
2023/07/15 00:13:41;;;;;;;5.55;2.72;;;;;22.30;98010.00;;;;5027982;28;20053;-67
2023/07/15 00:16:08;;;;;;;3.28;2.78;;;;;22.30;97993.00;;;;5027784;28;20069;-67
2023/07/15 00:18:35;;;;;;;2.85;2.35;;;;;22.30;97997.00;;;;5027734;28;20423;-67
2023/07/15 00:21:13;;;;;;;3.35;2.63;;;;;22.30;97995.00;;;;5012411;28;20042;-67
2023/07/15 00:23:40;;;;;;;2.80;2.60;;;;;22.30;97995.00;;;;5027967;28;20104;-66
2023/07/15 00:26:08;;;;;;;4.40;2.40;;;;;22.30;97993.00;;;;5027725;28;20157;-67
2023/07/15 00:28:36;;;;;;;5.40;3.30;;;;;22.20;97993.00;;;;5013029;28;20097;-67
2023/07/15 00:31:10;;;;;;;5.18;2.85;;;;;22.30;97988.00;;;;5027646;28;20604;-66
2023/07/15 00:33:37;;;;;;;3.05;2.75;;;;;22.30;97986.00;;;;5028716;28;20093;-67
2023/07/15 00:36:04;;;;;;;3.20;2.85;;;;;22.20;97983.00;;;;5013229;28;20132;-67
2023/07/15 00:38:30;;;;;;;6.93;2.90;;;;;22.20;97984.00;;;;5013617;28;20065;-67
2023/07/15 00:40:57;;;;;;;3.83;2.95;;;;;22.20;97986.00;;;;5013372;28;20041;-68
2023/07/15 00:44:03;;;;;;;2.83;2.50;;;;;22.20;97995.00;;;;5012824;28;20499;-65
2023/07/15 00:46:47;;;;;;;8.82;2.78;;;;;22.20;97985.00;;;;5013885;28;20052;-66
2023/07/15 00:49:23;;;;;;;5.38;2.92;;;;;22.20;97989.00;;;;5028778;28;20140;-66
2023/07/15 00:51:57;;;;;;;3.28;2.65;;;;;22.10;97981.00;;;;5013921;28;20073;-66
2023/07/15 00:54:24;;;;;;;2.55;2.35;;;;;22.10;97986.00;;;;5013653;28;20432;-67
2023/07/15 00:56:50;;;;;;;3.80;2.38;;;;;22.20;97986.00;;;;5028531;28;20415;-66
2023/07/15 00:59:17;;;;;;;4.18;3.03;;;;;22.10;97986.00;;;;5011310;28;20073;-66
2023/07/15 01:01:45;;;;;;;2.85;2.50;;;;;22.00;97987.00;;;;5028602;28;20131;-66
2023/07/15 01:04:12;;;;;;;2.90;2.60;;;;;22.00;97995.00;;;;5012890;28;20042;-67
2023/07/15 01:06:41;;;;;;;2.92;2.65;;;;;21.90;97989.00;;;;5012331;28;20069;-66
2023/07/15 01:09:09;;;;;;;5.10;2.35;;;;;21.90;97995.00;;;;5027326;28;20046;-66
2023/07/15 01:11:36;;;;;;;3.45;2.70;;;;;21.80;97992.00;;;;5011149;28;20151;-67
2023/07/15 01:14:05;;;;;;;4.30;2.80;;;;;21.80;97993.00;;;;5012270;28;20046;-67
2023/07/15 01:16:32;;;;;;;3.67;2.55;;;;;21.70;97982.00;;;;5027683;28;20057;-66
2023/07/15 01:19:00;;;;;;;3.25;2.55;;;;;21.60;97980.00;;;;5011827;28;20046;-67
2023/07/15 01:21:29;;;;;;;5.25;2.25;;;;;21.50;97984.00;;;;4997114;28;20045;-66
2023/07/15 01:23:56;;;;;;;3.53;2.75;;;;;21.50;97981.00;;;;5015649;28;20084;-66
2023/07/15 01:26:22;;;;;;;3.13;2.70;;;;;21.50;97987.00;;;;5031745;28;20050;-66
2023/07/15 01:28:50;;;;;;;3.88;3.00;;;;;21.40;97986.00;;;;5016690;28;20088;-66
2023/07/15 01:31:18;;;;;;;4.93;2.90;;;;;21.60;97982.00;;;;5016282;28;20570;-66
2023/07/15 01:33:45;;;;;;;4.63;2.58;;;;;21.50;97986.00;;;;5016578;28;20046;-66
2023/07/15 01:36:13;;;;;;;4.38;3.03;;;;;21.60;97982.00;;;;5015290;28;20050;-66
2023/07/15 01:38:40;;;;;;;5.70;2.70;;;;;21.60;97977.00;;;;5016706;28;20045;-65
2023/07/15 01:41:07;;;;;;;2.92;2.63;;;;;21.70;97975.00;;;;5015408;28;20042;-65
2023/07/15 01:43:34;;;;;;;4.18;3.30;;;;;21.60;97970.00;;;;5016349;28;20050;-67
2023/07/15 01:46:00;;;;;;;4.20;2.92;;;;;21.50;97972.00;;;;5015620;28;20407;-66
2023/07/15 01:48:27;;;;;;;3.33;2.80;;;;;21.60;97973.00;;;;5015960;28;20505;-66
2023/07/15 01:50:53;;;;;;;3.35;2.53;;;;;21.60;97974.00;;;;5014764;28;20038;-66
2023/07/15 01:53:20;;;;;;;5.38;3.33;;;;;21.60;97959.00;;;;5030594;28;20056;-66
2023/07/15 01:55:46;;;;;;;3.45;2.50;;;;;21.50;97970.00;;;;5030931;28;20053;-66
2023/07/15 01:58:13;;;;;;;2.60;2.40;;;;;21.40;97956.00;;;;4997945;28;20582;-69
2023/07/15 02:00:40;;;;;;;3.22;2.60;;;;;21.30;97956.00;;;;5030179;28;20499;-66
2023/07/15 02:03:06;;;;;;;4.20;2.80;;;;;21.20;97955.00;;;;5016343;28;20046;-66
2023/07/15 02:05:34;;;;;;;3.50;2.58;;;;;21.10;97943.00;;;;5017554;28;20092;-66
2023/07/15 02:08:00;;;;;;;4.13;2.42;;;;;21.10;97946.00;;;;5016134;28;20050;-66
2023/07/15 02:10:30;;;;;;;3.13;2.83;;;;;21.10;97943.00;;;;5016865;28;20506;-66
2023/07/15 02:12:56;;;;;;;4.68;2.83;;;;;21.00;97937.00;;;;5017822;28;20045;-66
2023/07/15 02:15:23;;;;;;;5.22;2.60;;;;;21.00;97934.00;;;;5031286;28;20062;-66
2023/07/15 02:17:50;;;;;;;2.97;2.60;;;;;21.00;97928.00;;;;5016439;28;20042;-67
2023/07/15 02:20:16;;;;;;;5.40;2.53;;;;;21.00;97924.00;;;;5031533;28;20046;-65
2023/07/15 02:22:43;;;;;;;2.47;2.13;;;;;21.00;97931.00;;;;5032951;28;20054;-64
2023/07/15 02:25:09;;;;;;;3.05;2.50;;;;;21.00;97920.00;;;;5018861;28;20053;-65
2023/07/15 02:27:36;;;;;;;2.60;2.40;;;;;21.00;97932.00;;;;4999340;28;20495;-67
2023/07/15 02:30:06;;;;;;;6.15;2.78;;;;;21.10;97928.00;;;;5031793;28;20042;-64
2023/07/15 02:32:39;;;;;;;2.83;2.20;;;;;21.00;97927.00;;;;5017575;28;20050;-65
2023/07/15 02:35:08;;;;;;;3.92;2.58;;;;;20.90;97922.00;;;;5018000;28;20037;-65
2023/07/15 02:37:36;;;;;;;4.10;2.30;;;;;20.90;97924.00;;;;5018485;28;20422;-65
2023/07/15 02:40:04;;;;;;;5.55;2.95;;;;;21.00;97927.00;;;;5016555;28;20046;-64
2023/07/15 02:42:34;;;;;;;2.90;2.40;;;;;21.10;97917.00;;;;5016406;28;20053;-64
2023/07/15 02:45:03;;;;;;;2.60;2.40;;;;;21.10;97922.00;;;;5032359;28;20458;-65
2023/07/15 02:47:30;;;;;;;2.95;2.42;;;;;21.10;97921.00;;;;5017803;28;20049;-64
2023/07/15 02:49:58;;;;;;;2.67;2.47;;;;;21.00;97905.00;;;;5031347;28;20049;-66
2023/07/15 02:52:25;;;;;;;2.70;2.50;;;;;21.00;97914.00;;;;5017769;28;20558;-64
2023/07/15 02:54:52;;;;;;;3.63;2.60;;;;;20.90;97919.00;;;;5030190;28;20050;-64
2023/07/15 02:57:18;;;;;;;4.65;2.88;;;;;20.80;97911.00;;;;5014675;28;20303;-64
2023/07/15 02:59:45;;;;;;;3.38;2.38;;;;;20.70;97914.00;;;;5028817;28;20141;-66
2023/07/15 03:02:12;;;;;;;4.50;2.90;;;;;20.90;97921.00;;;;5012706;28;20050;-64
2023/07/15 03:04:38;;;;;;;2.53;2.17;;;;;20.90;97925.00;;;;5012631;28;20139;-67
2023/07/15 03:07:05;;;;;;;6.13;2.47;;;;;20.90;97930.00;;;;5012633;28;20257;-67
2023/07/15 03:09:32;;;;;;;4.07;2.35;;;;;20.90;97926.00;;;;5013327;28;20050;-66
2023/07/15 03:11:59;;;;;;;4.25;2.47;;;;;20.80;97924.00;;;;5029089;28;20054;-67
2023/07/15 03:14:25;;;;;;;3.80;2.75;;;;;20.70;97915.00;;;;5013749;28;20558;-67
2023/07/15 03:16:52;;;;;;;3.58;2.78;;;;;20.60;97909.00;;;;5013635;28;20491;-66
2023/07/15 03:19:18;;;;;;;6.15;3.33;;;;;20.60;97903.00;;;;5028140;28;20053;-66
2023/07/15 03:21:45;;;;;;;4.50;3.10;;;;;20.60;97916.00;;;;5012392;28;20117;-66
2023/07/15 03:24:11;;;;;;;3.90;2.47;;;;;20.50;97914.00;;;;5011946;28;20137;-69
2023/07/15 03:26:38;;;;;;;5.40;2.83;;;;;20.50;97919.00;;;;5012077;28;20069;-63
2023/07/15 03:29:08;;;;;;;3.03;2.55;;;;;20.50;97919.00;;;;5012070;28;20096;-64
2023/07/15 03:31:39;;;;;;;3.03;2.65;;;;;20.40;97922.00;;;;5012246;28;20564;-64
2023/07/15 03:34:06;;;;;;;7.88;2.97;;;;;20.40;97925.00;;;;5028464;28;20050;-65
2023/07/15 03:36:34;;;;;;;5.00;2.88;;;;;20.60;97922.00;;;;5028599;28;20100;-64
2023/07/15 03:39:00;;;;;;;3.25;2.75;;;;;20.60;97928.00;;;;5011776;28;20155;-65
2023/07/15 03:41:27;;;;;;;3.38;2.90;;;;;20.70;97932.00;;;;4995231;28;20558;-64
2023/07/15 03:43:54;;;;;;;3.50;2.80;;;;;20.70;97943.00;;;;5013492;28;20037;-64
2023/07/15 03:46:21;;;;;;;3.88;3.13;;;;;20.70;97947.00;;;;5011805;28;20084;-65
2023/07/15 03:48:48;;;;;;;3.78;2.70;;;;;20.70;97938.00;;;;5012751;28;20119;-65
2023/07/15 03:51:14;;;;;;;3.95;2.80;;;;;20.60;97945.00;;;;5011131;28;20141;-66
2023/07/15 03:53:41;;;;;;;4.13;3.20;;;;;20.60;97937.00;;;;5012745;28;20124;-63
2023/07/15 03:56:08;;;;;;;3.42;2.47;;;;;20.60;97939.00;;;;5011506;28;20049;-64
2023/07/15 03:58:34;;;;;;;3.50;2.38;;;;;20.70;97940.00;;;;5012760;28;20637;-65
2023/07/15 04:01:01;;;;;;;4.60;2.70;;;;;20.70;97937.00;;;;5026804;28;20045;-65
2023/07/15 04:03:28;;;;;;;3.30;2.75;;;;;20.70;97937.00;;;;5011325;28;20046;-65
2023/07/15 04:05:55;;;;;;;3.03;2.63;;;;;20.70;97937.00;;;;5027649;28;20144;-68
2023/07/15 04:08:21;;;;;;;3.25;2.60;;;;;20.70;97927.00;;;;5012571;28;20045;-65
2023/07/15 04:10:48;;;;;;;3.22;2.83;;;;;20.70;97936.00;;;;5027338;28;20056;-65
2023/07/15 04:13:15;;;;;;;3.70;2.95;;;;;20.70;97930.00;;;;4994927;28;20140;-65
2023/07/15 04:15:42;;;;;;;4.03;3.35;;;;;20.70;97926.00;;;;5011082;28;20046;-66
2023/07/15 04:18:08;;;;;;;3.70;2.58;;;;;20.70;97922.00;;;;5027537;28;20042;-65
2023/07/15 04:20:35;;;;;;;5.95;3.65;;;;;20.60;97921.00;;;;5010416;28;20060;-66
2023/07/15 04:23:02;;;;;;;7.10;3.17;;;;;20.70;97911.00;;;;5012271;28;20049;-64
2023/07/15 04:25:29;;;;;;;3.00;2.70;;;;;20.60;97909.00;;;;4994649;28;20088;-65
2023/07/15 04:27:56;;;;;;;5.43;2.88;;;;;20.60;97906.00;;;;5012289;28;20120;-67
2023/07/15 04:30:22;;;;;;;3.47;3.03;;;;;20.80;97895.00;;;;4994121;28;20108;-64
2023/07/15 04:32:49;;;;;;;3.10;2.75;;;;;20.80;97902.00;;;;5012150;28;20042;-65
2023/07/15 04:35:16;;;;;;;4.13;2.97;;;;;20.90;97911.00;;;;4994873;28;20058;-65
2023/07/15 04:37:42;;;;;;;4.80;2.95;;;;;20.90;97917.00;;;;5011085;28;20089;-65
2023/07/15 04:40:11;;;;;;;3.88;2.78;;;;;21.10;97918.00;;;;5010507;28;20057;-65
2023/07/15 04:42:37;;;;;;;3.92;2.85;;;;;21.30;97916.00;;;;5010841;28;20046;-65
2023/07/15 04:45:05;;;;;;;4.75;2.80;;;;;21.50;97916.00;;;;5027137;28;20050;-67
2023/07/15 04:47:32;;;;;;;5.60;2.58;;;;;21.70;97904.00;;;;5011987;28;20096;-64
2023/07/15 04:49:59;;;;;;;3.22;2.88;;;;;21.90;97909.00;;;;5011552;28;20042;-65
2023/07/15 04:52:26;;;;;;;3.17;2.88;;;;;22.10;97897.00;;;;5010837;28;20045;-65
2023/07/15 04:54:52;;;;;;;9.90;4.55;;;;;22.30;97893.00;;;;5010707;28;20502;-66
2023/07/15 04:57:19;;;;;;;4.80;3.08;;;;;22.40;97892.00;;;;5012976;28;20084;-65
2023/07/15 04:59:46;;;;;;;5.05;2.78;;;;;22.30;97895.00;;;;4997759;28;20132;-64
2023/07/15 05:02:12;;;;;;;3.65;2.75;;;;;22.20;97887.00;;;;5015753;28;20679;-65
2023/07/15 05:04:39;;;;;;;3.60;2.90;;;;;22.10;97877.00;;;;5015615;28;20034;-66
2023/07/15 05:07:06;;;;;;;2.85;2.63;;;;;22.10;97871.00;;;;5014571;28;20124;-65
2023/07/15 05:09:32;;;;;;;3.25;2.60;;;;;22.10;97880.00;;;;5030456;28;20049;-68
2023/07/15 05:12:00;;;;;;;6.57;3.00;;;;;22.30;97884.00;;;;5015767;28;20464;-65
2023/07/15 05:14:27;;;;;;;5.20;3.10;;;;;22.50;97888.00;;;;5015532;28;20518;-66
2023/07/15 05:16:53;;;;;;;3.30;2.58;;;;;22.60;97889.00;;;;5015586;28;20042;-65
2023/07/15 05:19:21;;;;;;;3.55;2.72;;;;;22.70;97890.00;;;;5013796;28;20081;-65
2023/07/15 05:21:48;;;;;;;6.07;2.60;;;;;22.70;97889.00;;;;5013889;28;20045;-65
2023/07/15 05:24:14;;;;;;;2.78;2.40;;;;;22.80;97889.00;;;;5015743;28;20053;-65
2023/07/15 05:26:41;;;;;;;3.00;2.67;;;;;22.90;97892.00;;;;5015363;28;20038;-65
2023/07/15 05:29:08;;;;;;;3.30;2.85;;;;;22.90;97906.00;;;;4997258;28;20045;-68
2023/07/15 05:31:34;;;;;;;3.10;2.80;;;;;23.00;97901.00;;;;4997791;28;20051;-65
2023/07/15 05:34:03;;;;;;;5.38;3.35;;;;;23.20;97902.00;;;;5030333;28;20073;-65
2023/07/15 05:36:29;;;;;;;2.38;2.17;;;;;23.20;97904.00;;;;5015594;28;20133;-65
2023/07/15 05:38:56;;;;;;;2.70;2.25;;;;;23.20;97898.00;;;;5013818;28;20078;-67
2023/07/15 05:41:23;;;;;;;5.90;2.72;;;;;23.30;97896.00;;;;5013197;28;20049;-66
2023/07/15 05:43:49;;;;;;;3.95;2.55;;;;;23.40;97912.00;;;;5013582;28;20064;-67
2023/07/15 05:46:16;;;;;;;3.05;2.40;;;;;23.50;97918.00;;;;5014828;28;20046;-66
2023/07/15 05:48:42;;;;;;;2.90;2.20;;;;;23.60;97902.00;;;;5013766;28;20452;-67
2023/07/15 05:51:10;;;;;;;3.28;2.20;;;;;23.80;97894.00;;;;5014500;28;20084;-67
2023/07/15 05:53:36;;;;;;;4.05;2.50;;;;;24.00;97897.00;;;;4997579;28;20052;-67
2023/07/15 05:56:03;;;;;;;3.35;2.35;;;;;24.20;97900.00;;;;5014032;28;20076;-67
2023/07/15 05:58:30;;;;;;;4.85;2.70;;;;;24.20;97902.00;;;;5016624;28;20060;-66
2023/07/15 06:00:56;;;;;;;4.00;2.40;;;;;24.30;97905.00;;;;5031818;28;20080;-67
2023/07/15 06:03:25;;;;;;;3.20;2.20;;;;;24.30;97895.00;;;;5015748;28;20046;-66
2023/07/15 06:05:52;;;;;;;2.97;2.22;;;;;24.20;97888.00;;;;5015937;28;20056;-64
2023/07/15 06:08:19;;;;;;;2.92;2.20;;;;;24.40;97893.00;;;;5013833;28;20570;-64
2023/07/15 06:10:45;;;;;;;3.60;2.58;;;;;24.50;97903.00;;;;5015305;28;20038;-64
2023/07/15 06:13:12;;;;;;;3.75;2.85;;;;;24.70;97900.00;;;;5015136;28;20041;-67
2023/07/15 06:15:39;;;;;;;3.50;2.35;;;;;24.70;97909.00;;;;5014620;28;20049;-67
2023/07/15 06:18:05;;;;;;;3.90;2.40;;;;;24.90;97913.00;;;;5014677;28;20042;-65
2023/07/15 06:20:36;;;;;;;3.47;2.25;;;;;25.10;97908.00;;;;5014009;28;20076;-65
2023/07/15 06:23:02;;;;;;;3.55;2.95;;;;;25.30;97917.00;;;;5014277;28;20056;-64
2023/07/15 06:25:29;;;;;;;4.65;2.92;;;;;25.50;97916.00;;;;5029430;28;20054;-66
2023/07/15 06:27:56;;;;;;;4.10;2.67;;;;;25.50;97911.00;;;;5013175;28;20092;-65
2023/07/15 06:30:23;;;;;;;6.65;5.63;;;;;25.60;97901.00;;;;5013696;28;20522;-66
2023/07/15 06:32:50;;;;;;;5.50;3.35;;;;;25.50;97900.00;;;;5014159;28;20073;-64
2023/07/15 06:35:16;;;;;;;4.00;3.58;;;;;25.40;97894.00;;;;5013969;28;20052;-65
2023/07/15 06:37:47;;;;;;;4.25;3.85;;;;;25.40;97893.00;;;;5014053;28;20746;-65
2023/07/15 06:40:20;;;;;;;2.72;2.53;;;;;25.50;97897.00;;;;5028470;28;20053;-65
2023/07/15 06:42:48;;;;;;;6.82;4.90;;;;;25.60;97896.00;;;;5014109;28;20399;-65
2023/07/15 06:45:19;;;;;;;3.42;2.67;;;;;25.60;97894.00;;;;5013749;28;20045;-64
2023/07/15 06:47:45;;;;;;;5.13;3.22;;;;;25.50;97894.00;;;;5013845;28;20522;-65
2023/07/15 06:50:12;;;;;;;7.68;3.33;;;;;25.60;97893.00;;;;5013256;28;20092;-66
2023/07/15 06:52:39;;;;;;;7.68;3.42;;;;;25.60;97896.00;;;;5013586;28;20483;-66
2023/07/15 06:55:05;;;;;;;5.22;2.88;;;;;25.60;97895.00;;;;5013634;28;20358;-66
2023/07/15 06:57:32;;;;;;;8.18;3.90;;;;;25.70;97896.00;;;;5013810;28;20479;-66
2023/07/15 06:59:58;;;;;;;4.78;3.00;;;;;25.70;97902.00;;;;5013155;28;20359;-66
2023/07/15 07:02:25;;;;;;;8.50;3.22;;;;;25.70;97914.00;;;;5013889;28;20532;-66
2023/07/15 07:04:51;;;;;;;4.60;3.35;;;;;25.70;97920.00;;;;5013571;28;20474;-66
2023/07/15 07:07:22;;;;;;;4.22;2.50;;;;;25.70;97916.00;;;;5012229;28;20107;-66
2023/07/15 07:09:49;;;;;;;4.97;3.22;;;;;25.70;97911.00;;;;5028040;28;20042;-66
2023/07/15 07:12:15;;;;;;;3.63;2.75;;;;;25.80;97917.00;;;;5012486;28;20042;-66
2023/07/15 07:14:42;;;;;;;4.70;4.10;;;;;26.00;97919.00;;;;5013403;28;20052;-66
2023/07/15 07:17:08;;;;;;;4.50;3.00;;;;;26.10;97939.00;;;;5013352;28;20558;-66
2023/07/15 07:19:35;;;;;;;5.45;2.60;;;;;26.20;97934.00;;;;5011145;28;20138;-66
2023/07/15 07:22:02;;;;;;;3.15;2.30;;;;;26.20;97919.00;;;;4995509;28;20053;-66
2023/07/15 07:24:28;;;;;;;7.03;2.97;;;;;26.30;97921.00;;;;5013342;28;20041;-67
2023/07/15 07:26:55;;;;;;;5.95;2.65;;;;;26.50;97926.00;;;;5028324;28;20046;-66
2023/07/15 07:29:22;;;;;;;5.28;2.85;;;;;26.70;97927.00;;;;5012675;28;20050;-67
2023/07/15 07:31:49;;;;;;;4.88;2.40;;;;;26.90;97929.00;;;;5013066;28;20045;-67
2023/07/15 07:34:15;;;;;;;3.88;2.70;;;;;27.10;97915.00;;;;5012034;28;20049;-67
2023/07/15 07:36:42;;;;;;;4.40;2.20;;;;;27.40;97913.00;;;;5012981;28;20483;-66
2023/07/15 07:39:08;;;;;;;6.03;2.85;;;;;27.80;97913.00;;;;5011531;28;20443;-66
2023/07/15 07:41:35;;;;;;;4.03;2.33;;;;;28.10;97921.00;;;;5012895;28;20065;-67
2023/07/15 07:44:01;;;;;;;7.18;2.85;;;;;28.30;97911.00;;;;5013052;28;20413;-67
2023/07/15 07:46:28;;;;;;;5.60;2.92;;;;;28.60;97925.00;;;;5012873;28;20045;-67
2023/07/15 07:48:54;;;;;;;2.90;2.08;;;;;28.80;97939.00;;;;5013049;28;20057;-66
2023/07/15 07:51:21;;;;;;;2.60;2.40;;;;;28.90;97931.00;;;;5012088;28;20052;-67
2023/07/15 07:53:48;;;;;;;4.53;1.85;;;;;29.10;97945.00;;;;5000566;28;20129;-67
2023/07/15 07:56:15;;;;;;;3.75;2.10;;;;;29.20;97949.00;;;;4993006;28;20050;-67
2023/07/15 07:58:41;;;;;;;3.97;2.53;;;;;29.40;97968.00;;;;5008064;28;20046;-67
2023/07/15 08:01:08;;;;;;;3.20;1.90;;;;;29.50;97979.00;;;;4991101;28;20050;-66
2023/07/15 08:03:34;;;;;;;2.78;2.38;;;;;29.60;97984.00;;;;4991614;28;20144;-66
2023/07/15 08:06:01;;;;;;;3.50;2.75;;;;;29.70;97978.00;;;;5007838;28;20057;-67
2023/07/15 08:08:28;;;;;;;4.78;1.88;;;;;29.70;97985.00;;;;5008026;28;20064;-66
2023/07/15 08:10:54;;;;;;;3.88;2.90;;;;;29.60;97995.00;;;;4992150;28;20042;-67
2023/07/15 08:13:21;;;;;;;2.72;2.35;;;;;29.50;98001.00;;;;4992677;28;20056;-66
2023/07/15 08:15:49;;;;;;;4.47;2.40;;;;;29.40;97996.00;;;;4992579;28;20042;-66
2023/07/15 08:18:16;;;;;;;6.90;3.45;;;;;29.40;97999.00;;;;4992721;28;20050;-66
2023/07/15 08:20:43;;;;;;;3.03;2.42;;;;;29.30;97986.00;;;;4992133;28;20042;-66
2023/07/15 08:23:09;;;;;;;2.60;2.38;;;;;29.20;97991.00;;;;4992664;28;20527;-66
2023/07/15 08:25:37;;;;;;;4.05;2.60;;;;;29.20;97982.00;;;;5007429;28;20046;-65
2023/07/15 08:28:03;;;;;;;12.77;2.85;;;;;29.30;97978.00;;;;4991387;28;20052;-64
2023/07/15 08:30:30;;;;;;;3.00;2.28;;;;;29.50;97970.00;;;;4991740;28;20050;-63
2023/07/15 08:32:57;;;;;;;3.63;2.17;;;;;29.60;97980.00;;;;4992187;28;20046;-63
2023/07/15 08:35:23;;;;;;;5.47;2.50;;;;;29.60;97976.00;;;;5007395;28;20065;-63
2023/07/15 08:37:50;;;;;;;2.67;2.47;;;;;29.70;97980.00;;;;4992638;28;20054;-63
2023/07/15 08:40:23;;;;;;;3.75;2.50;;;;;29.80;97985.00;;;;4991949;28;20042;-63
2023/07/15 08:42:49;;;;;;;3.65;2.83;;;;;29.90;97994.00;;;;4992504;28;20097;-63
2023/07/15 08:45:17;;;;;;;3.22;2.53;;;;;29.80;98000.00;;;;5007630;28;20145;-63
2023/07/15 08:47:44;;;;;;;4.78;3.13;;;;;29.60;97990.00;;;;4992600;28;20058;-63
2023/07/15 08:50:15;;;;;;;3.17;2.20;;;;;29.40;98001.00;;;;4990783;28;20120;-64
2023/07/15 08:52:43;;;;;;;4.28;2.63;;;;;29.20;98000.00;;;;4992480;28;20053;-64
2023/07/15 08:55:10;;;;;;;5.50;2.85;;;;;29.00;97996.00;;;;5007546;28;20097;-63
2023/07/15 08:57:37;;;;;;;6.50;2.83;;;;;29.00;98008.00;;;;4992510;28;20070;-64
2023/07/15 09:00:08;;;;;;;4.70;2.80;;;;;29.00;97998.00;;;;4991745;28;20050;-64
2023/07/15 09:02:40;;;;;;;3.92;2.63;;;;;28.90;97993.00;;;;4992221;28;20562;-64
2023/07/15 09:05:08;;;;;;;5.47;2.53;;;;;28.80;98001.00;;;;4992163;28;20443;-64
2023/07/15 09:07:57;;;;;;;5.82;2.47;;;;;28.80;98005.00;;;;4992431;28;20051;-64
2023/07/15 09:10:28;;;;;;;4.00;2.80;;;;;28.90;98006.00;;;;4991942;28;20042;-64
2023/07/15 09:12:55;;;;;;;4.55;3.03;;;;;28.90;98004.00;;;;4991007;28;20051;-63
2023/07/15 09:15:22;;;;;;;7.55;3.35;;;;;28.90;98002.00;;;;4991193;28;20514;-64
2023/07/15 09:18:01;;;;;;;3.67;2.78;;;;;28.90;98008.00;;;;4991028;28;20061;-64
2023/07/15 09:20:28;;;;;;;5.85;2.97;;;;;28.80;98021.00;;;;4991709;28;20097;-66
2023/07/15 09:22:59;;;;;;;4.88;3.03;;;;;28.70;98015.00;;;;4992047;28;20050;-65
2023/07/15 09:25:27;;;;;;;6.80;2.67;;;;;28.60;98033.00;;;;5006775;28;20050;-65
2023/07/15 09:27:54;;;;;;;4.35;2.75;;;;;28.40;98047.00;;;;5007001;28;20554;-66
2023/07/15 09:30:20;;;;;;;3.92;2.47;;;;;28.30;98059.00;;;;4990217;28;20104;-65
2023/07/15 09:32:47;;;;;;;7.05;3.42;;;;;28.10;98059.00;;;;4992170;28;20039;-65
2023/07/15 09:35:14;;;;;;;6.32;3.00;;;;;28.10;98064.00;;;;4993875;28;20078;-63
2023/07/15 09:37:41;;;;;;;6.07;2.85;;;;;28.00;98060.00;;;;5008908;28;20042;-63
2023/07/15 09:40:09;;;;;;;3.83;2.72;;;;;27.90;98051.00;;;;4993726;28;20125;-63
2023/07/15 09:42:55;;;;;;;5.10;2.88;;;;;27.90;98036.00;;;;4995678;28;20133;-63
2023/07/15 09:45:39;;;;;;;6.80;3.03;;;;;27.90;98012.00;;;;4998630;28;20039;-63
2023/07/15 09:48:08;;;;;;;9.10;3.65;;;;;28.00;98014.00;;;;4996804;28;20053;-63
2023/07/15 09:50:37;;;;;;;6.13;3.30;;;;;28.10;98007.00;;;;4997011;28;20057;-63
2023/07/15 09:53:04;;;;;;;9.93;7.20;;;;;28.30;98026.00;;;;4997478;28;20412;-63
2023/07/15 09:55:33;;;;;;;9.93;3.42;;;;;28.40;98021.00;;;;4997140;28;20415;-61
2023/07/15 09:58:06;;;;;;;7.13;3.33;;;;;28.30;98032.00;;;;4996937;28;20055;-62
2023/07/15 10:00:34;;;;;;;;;;;;;28.20;98051.00;;;;4997318;28;20046;-63
2023/07/15 10:03:02;;;;;;;5.85;3.20;;;;;28.00;98041.00;;;;5012757;28;19944;-61
2023/07/15 10:05:31;;;;;;;4.53;3.45;;;;;27.90;98061.00;;;;4997287;28;20057;-61
2023/07/15 10:07:58;;;;;;;6.82;3.97;;;;;27.80;98061.00;;;;4995646;28;20077;-62
2023/07/15 10:10:25;;;;;;;6.38;3.50;;;;;27.80;98052.00;;;;4996578;28;20042;-62
2023/07/15 10:12:52;;;;;;;8.00;3.40;;;;;27.70;98060.00;;;;4996264;28;20578;-63
2023/07/15 10:15:19;;;;;;;7.53;3.55;;;;;27.60;98065.00;;;;5011506;28;20066;-62
2023/07/15 10:17:46;;;;;;;9.48;4.18;;;;;27.60;98071.00;;;;4997236;28;20280;-63
2023/07/15 10:20:14;;;;;;;8.30;4.20;;;;;27.50;98059.00;;;;5011829;28;20085;-62
2023/07/15 10:22:45;;;;;;;8.93;4.53;;;;;27.50;98040.00;;;;5011281;28;20058;-61
2023/07/15 10:25:15;;;;;;;8.32;4.10;;;;;27.50;98038.00;;;;4993219;28;20419;-61
2023/07/15 10:27:41;;;;;;;8.05;3.92;;;;;27.60;98043.00;;;;4994303;28;20047;-61
2023/07/15 10:30:26;;;;;;;5.95;3.80;;;;;27.60;98033.00;;;;4993960;28;20042;-61
2023/07/15 10:33:08;;;;;;;6.35;4.18;;;;;27.70;97993.00;;;;4994823;28;20499;-61
2023/07/15 10:35:47;;;;;;;9.25;4.50;;;;;27.70;98013.00;;;;4994497;28;20499;-62
2023/07/15 10:38:31;;;;;;;8.00;3.60;;;;;27.80;98017.00;;;;4994724;28;20499;-62
2023/07/15 10:41:02;;;;;;;8.40;4.32;;;;;27.70;98009.00;;;;5009095;28;20100;-62
2023/07/15 10:43:34;;;;;;;5.72;4.07;;;;;27.40;98009.00;;;;4994465;28;20050;-61
2023/07/15 10:46:09;;;;;;;6.72;3.83;;;;;27.20;98003.00;;;;4994391;28;20493;-62
2023/07/15 10:48:37;;;;;;;5.60;4.28;;;;;27.10;97998.00;;;;4994594;28;20073;-61
2023/07/15 10:51:08;;;;;;;8.18;4.38;;;;;27.10;98003.00;;;;4993809;28;20042;-61
2023/07/15 10:53:36;;;;;;;5.93;4.22;;;;;27.00;97978.00;;;;4994182;28;20089;-62
2023/07/15 10:56:03;;;;;;;8.20;4.78;;;;;27.10;97964.00;;;;4993822;28;20483;-61
2023/07/15 10:58:32;;;;;;;8.77;5.35;;;;;27.10;97964.00;;;;4994162;28;20531;-61
2023/07/15 11:01:01;;;;;;;6.32;4.63;;;;;27.20;97978.00;;;;5008837;28;20054;-61
2023/07/15 11:03:30;;;;;;;9.60;4.68;;;;;27.30;97983.00;;;;4992778;28;20478;-61
2023/07/15 11:06:01;;;;;;;7.10;4.80;;;;;27.20;97978.00;;;;4993982;28;20042;-61
2023/07/15 11:08:29;;;;;;;9.43;4.75;;;;;27.00;98007.00;;;;4993949;28;20043;-61
2023/07/15 11:11:04;;;;;;;11.13;4.82;;;;;26.90;98005.00;;;;4993475;28;20053;-61
2023/07/15 11:13:35;;;;;;;8.93;4.78;;;;;26.80;98011.00;;;;4993767;28;20081;-61
2023/07/15 11:16:01;;;;;;;9.23;4.90;;;;;26.80;98023.00;;;;4993735;28;20142;-61
2023/07/15 11:18:28;;;;;;;8.82;4.72;;;;;26.70;98032.00;;;;5008846;28;20134;-61
2023/07/15 11:20:58;;;;;;;9.77;4.93;;;;;26.70;98036.00;;;;4993515;28;20053;-61
2023/07/15 11:23:27;;;;;;;9.68;4.93;;;;;26.60;97998.00;;;;4993591;28;20132;-61
2023/07/15 11:25:54;;;;;;;8.27;4.75;;;;;26.50;98013.00;;;;5008628;28;20049;-61
2023/07/15 11:28:21;;;;;;;6.03;4.30;;;;;26.30;98002.00;;;;4993514;28;20065;-61
2023/07/15 11:30:48;;;;;;;7.63;4.38;;;;;26.20;98000.00;;;;4992904;28;20043;-61
2023/07/15 11:33:16;;;;;;;5.85;4.72;;;;;26.10;97999.00;;;;4993455;28;20046;-62
2023/07/15 11:35:44;;;;;;;7.85;4.60;;;;;26.10;97980.00;;;;4992023;28;20496;-60
2023/07/15 11:38:10;;;;;;;7.07;4.38;;;;;26.20;97987.00;;;;4993303;28;20484;-60
2023/07/15 11:40:52;;;;;;;5.85;4.40;;;;;26.50;98017.00;;;;4992685;28;20046;-60
2023/07/15 11:43:20;;;;;;;7.05;5.18;;;;;26.70;98007.00;;;;4993239;28;20093;-60
2023/07/15 11:45:47;;;;;;;5.60;4.90;;;;;26.90;98025.00;;;;4993198;28;20046;-60
2023/07/15 11:48:27;;;;;;;6.95;4.53;;;;;27.10;98025.00;;;;4993169;28;20042;-60
2023/07/15 11:51:04;;;;;;;6.80;4.32;;;;;27.30;98015.00;;;;5007791;28;20077;-60
2023/07/15 11:53:32;;;;;;;6.45;5.05;;;;;27.30;98013.00;;;;4993277;28;20121;-60
2023/07/15 11:56:00;;;;;;;7.38;4.63;;;;;27.40;98023.00;;;;4992973;28;20042;-59
2023/07/15 11:58:56;;;;;;;6.60;4.82;;;;;27.50;98012.00;;;;4991850;28;20133;-60
2023/07/15 12:01:24;;;;;;;4.38;3.85;;;;;27.60;98024.00;;;;4966867;28;20050;-61
2023/07/15 12:03:52;;;;;;;7.85;4.47;;;;;27.60;98028.00;;;;4993145;28;20466;-60
2023/07/15 12:06:24;;;;;;;5.28;3.97;;;;;27.50;98015.00;;;;5006997;28;20046;-60
2023/07/15 12:09:10;;;;;;;7.57;4.00;;;;;27.50;98007.00;;;;4991725;28;20046;-60
2023/07/15 12:11:37;;;;;;;8.90;4.60;;;;;27.60;97982.00;;;;4992925;28;20050;-60
2023/07/15 12:14:07;;;;;;;5.78;4.80;;;;;27.50;97981.00;;;;4991843;28;20398;-60
2023/07/15 12:16:36;;;;;;;7.38;5.25;;;;;27.40;98012.00;;;;4992946;28;20046;-61
2023/07/15 12:19:04;;;;;;;4.35;3.53;;;;;27.30;97976.00;;;;4992430;28;20046;-59
2023/07/15 12:21:31;;;;;;;8.55;4.55;;;;;27.20;97993.00;;;;4992956;28;20057;-61
2023/07/15 12:23:58;;;;;;;4.95;4.20;;;;;27.10;98010.00;;;;4992403;28;20039;-60